createdAt,value
2018-09-15T00:06:26.049Z,20.9
2018-09-15T00:16:25.284Z,20.8
2018-09-15T00:26:24.508Z,20.8
2018-09-15T00:36:23.739Z,20.7
2018-09-15T00:46:22.969Z,20.6
2018-09-15T00:56:22.204Z,20.5
2018-09-15T01:06:21.437Z,20.5
2018-09-15T01:16:20.664Z,20.5
2018-09-15T01:26:19.898Z,20.4
2018-09-15T01:36:19.127Z,20.4
2018-09-15T01:46:18.410Z,20.3
2018-09-15T01:56:17.589Z,20.3
2018-09-15T02:06:16.818Z,20.2
2018-09-15T02:16:16.055Z,20.1
2018-09-15T02:26:15.278Z,20
2018-09-15T02:36:14.506Z,20
2018-09-15T02:46:13.738Z,19.9
2018-09-15T02:56:12.967Z,19.8
2018-09-15T03:06:12.193Z,19.8
2018-09-15T03:16:11.422Z,19.6
2018-09-15T03:26:10.655Z,19.6
2018-09-15T03:36:09.878Z,19.6
2018-09-15T03:46:09.107Z,19.5
2018-09-15T03:56:08.334Z,19.4
2018-09-15T04:06:07.566Z,19.4
2018-09-15T04:16:06.792Z,19.4
2018-09-15T04:26:06.018Z,19.3
2018-09-15T04:36:05.247Z,19.3
2018-09-15T04:46:04.473Z,19.3
2018-09-15T04:56:03.701Z,19.4
2018-09-15T05:06:02.926Z,19.5
2018-09-15T05:16:02.158Z,19.6
2018-09-15T05:26:01.386Z,19.9
2018-09-15T05:36:00.617Z,20.4
2018-09-15T05:45:59.845Z,20.1
2018-09-15T05:55:59.113Z,20
2018-09-15T06:05:58.307Z,20.2
2018-09-15T06:15:57.582Z,20.5
2018-09-15T06:25:56.766Z,21.2
2018-09-15T06:35:56.000Z,22.1
2018-09-15T06:45:55.229Z,22.4
2018-09-15T06:55:54.469Z,22.4
2018-09-15T07:05:53.688Z,23.3
2018-09-15T07:15:52.920Z,23.9
2018-09-15T07:25:52.180Z,24.3
2018-09-15T07:35:51.389Z,24.5
2018-09-15T07:45:50.616Z,24.5
2018-09-15T07:55:49.847Z,24.7
2018-09-15T08:05:49.076Z,25.3
2018-09-15T08:15:48.308Z,25.6
2018-09-15T08:25:47.554Z,25.1
2018-09-15T08:35:46.782Z,25.6
2018-09-15T08:45:46.011Z,26.1
2018-09-15T08:55:45.244Z,26.1
2018-09-15T09:05:44.477Z,26.3
2018-09-15T09:15:43.706Z,26.5
2018-09-15T09:25:42.959Z,26.6
2018-09-15T09:35:42.170Z,25.9
2018-09-15T09:45:41.403Z,26.4
2018-09-15T09:55:40.641Z,26.6
2018-09-15T10:05:39.880Z,26.5
2018-09-15T10:15:39.107Z,26.8
2018-09-15T10:25:38.337Z,27.1
2018-09-15T10:35:37.575Z,27
2018-09-15T10:45:36.802Z,26.9
2018-09-15T10:55:36.034Z,26.9
2018-09-15T11:05:35.271Z,26.8
2018-09-15T11:15:34.500Z,26.9
2018-09-15T11:25:33.733Z,26.6
2018-09-15T11:35:32.969Z,27.1
2018-09-15T11:45:32.204Z,27.1
2018-09-15T11:55:31.436Z,26.9
2018-09-15T12:05:30.662Z,27
2018-09-15T12:15:29.896Z,26.9
2018-09-15T12:25:29.127Z,26.9
2018-09-15T12:35:28.362Z,26.8
2018-09-15T12:45:27.597Z,26.8
2018-09-15T12:55:26.822Z,26.8
2018-09-15T13:05:26.064Z,26.7
2018-09-15T13:15:25.387Z,26.5
2018-09-15T13:25:24.518Z,26.8
2018-09-15T13:35:23.796Z,26.6
2018-09-15T13:45:22.983Z,26.4
2018-09-15T13:55:22.215Z,26.4
2018-09-15T14:05:21.446Z,26.5
2018-09-15T14:15:20.683Z,26.4
2018-09-15T14:25:19.911Z,26.3
2018-09-15T14:35:19.141Z,26.1
2018-09-15T14:45:18.378Z,26
2018-09-15T14:55:17.655Z,25.9
2018-09-15T15:05:16.843Z,25.8
2018-09-15T15:15:16.101Z,25.8
2018-09-15T15:25:15.306Z,25.7
2018-09-15T15:35:14.599Z,25.6
2018-09-15T15:45:13.774Z,25.5
2018-09-15T15:55:13.008Z,25.1
2018-09-15T16:05:12.244Z,24.9
2018-09-15T16:15:11.476Z,24.9
2018-09-15T16:25:10.715Z,24.7
2018-09-15T16:35:09.949Z,24.6
2018-09-15T16:45:09.188Z,24.3
2018-09-15T16:55:08.426Z,23.9
2018-09-15T17:05:07.661Z,23.4
2018-09-15T17:15:06.899Z,23.3
2018-09-15T17:25:06.133Z,23.2
2018-09-15T17:35:05.370Z,23.1
2018-09-15T17:45:04.664Z,23.1
2018-09-15T17:55:03.857Z,23.1
2018-09-15T18:05:03.076Z,23.1
2018-09-15T18:15:02.355Z,23.1
2018-09-15T18:25:01.545Z,23.1
2018-09-15T18:35:00.782Z,23
2018-09-15T18:45:00.026Z,23
2018-09-15T18:54:59.255Z,23
2018-09-15T19:04:58.489Z,22.9
2018-09-15T19:14:57.729Z,22.9
2018-09-15T19:24:57.010Z,22.9
2018-09-15T19:34:56.193Z,23
2018-09-15T19:44:55.428Z,23
2018-09-15T19:54:54.670Z,23
2018-09-15T20:04:53.920Z,23.1
2018-09-15T20:14:53.132Z,22.6
2018-09-15T20:24:52.409Z,22.9
2018-09-15T20:34:51.608Z,23.1
2018-09-15T20:44:50.835Z,23.3
2018-09-15T20:54:50.069Z,23.4
2018-09-15T21:04:49.307Z,23.5
2018-09-15T21:14:48.536Z,23.4
2018-09-15T21:24:47.777Z,23.4
2018-09-15T21:34:47.002Z,23.4
2018-09-15T21:44:46.235Z,23.3
2018-09-15T21:54:45.473Z,23.3
2018-09-15T22:04:44.713Z,23.3
2018-09-15T22:14:43.936Z,23.2
2018-09-15T22:24:43.169Z,23.2
2018-09-15T22:34:42.420Z,23.1
2018-09-15T22:44:41.653Z,23.1
2018-09-15T22:54:40.887Z,23.1
2018-09-15T23:04:40.122Z,23
2018-09-15T23:14:39.351Z,22.9
2018-09-15T23:24:38.571Z,22.9
2018-09-15T23:34:37.802Z,22.9
2018-09-15T23:44:37.036Z,22.9
2018-09-15T23:54:36.271Z,22.9
